sensor_id;sensor_type;location;lat;lon;timestamp;P1;durP1;ratioP1;P2;durP2;ratioP2
61756;SDS011;57225;61.460;24.060;2023-09-19T00:02:19;1.90;;;0.63;;
61756;SDS011;57225;61.460;24.060;2023-09-19T00:05:04;2.05;;;0.90;;
61756;SDS011;57225;61.460;24.060;2023-09-19T00:07:48;1.10;;;0.60;;
61756;SDS011;57225;61.460;24.060;2023-09-19T00:10:34;1.38;;;0.93;;
61756;SDS011;57225;61.460;24.060;2023-09-19T00:13:19;2.85;;;0.80;;
61756;SDS011;57225;61.460;24.060;2023-09-19T00:16:10;1.85;;;1.20;;
61756;SDS011;57225;61.460;24.060;2023-09-19T00:18:55;4.38;;;0.93;;
61756;SDS011;57225;61.460;24.060;2023-09-19T00:21:39;2.60;;;0.85;;
61756;SDS011;57225;61.460;24.060;2023-09-19T00:24:24;2.17;;;0.90;;
61756;SDS011;57225;61.460;24.060;2023-09-19T00:27:09;2.85;;;0.80;;
61756;SDS011;57225;61.460;24.060;2023-09-19T00:29:53;4.53;;;1.00;;
61756;SDS011;57225;61.460;24.060;2023-09-19T00:32:38;5.68;;;1.23;;
61756;SDS011;57225;61.460;24.060;2023-09-19T00:35:22;1.17;;;0.90;;
61756;SDS011;57225;61.460;24.060;2023-09-19T00:38:10;1.52;;;1.10;;
61756;SDS011;57225;61.460;24.060;2023-09-19T00:40:54;1.20;;;0.90;;
61756;SDS011;57225;61.460;24.060;2023-09-19T00:43:40;1.63;;;1.10;;
61756;SDS011;57225;61.460;24.060;2023-09-19T00:46:25;1.00;;;0.90;;
61756;SDS011;57225;61.460;24.060;2023-09-19T00:49:09;2.88;;;1.00;;
61756;SDS011;57225;61.460;24.060;2023-09-19T00:51:54;1.75;;;1.08;;
61756;SDS011;57225;61.460;24.060;2023-09-19T00:54:39;2.08;;;1.10;;
61756;SDS011;57225;61.460;24.060;2023-09-19T00:57:24;1.40;;;1.10;;
61756;SDS011;57225;61.460;24.060;2023-09-19T01:00:09;3.28;;;1.23;;
61756;SDS011;57225;61.460;24.060;2023-09-19T01:02:58;5.38;;;1.10;;
61756;SDS011;57225;61.460;24.060;2023-09-19T01:05:45;3.75;;;1.10;;
61756;SDS011;57225;61.460;24.060;2023-09-19T01:08:32;2.58;;;1.20;;
61756;SDS011;57225;61.460;24.060;2023-09-19T01:17:09;2.97;;;0.93;;
61756;SDS011;57225;61.460;24.060;2023-09-19T01:20:10;3.55;;;1.17;;
61756;SDS011;57225;61.460;24.060;2023-09-19T01:26:06;1.98;;;1.30;;
61756;SDS011;57225;61.460;24.060;2023-09-19T01:32:20;2.70;;;1.35;;
61756;SDS011;57225;61.460;24.060;2023-09-19T01:35:08;2.35;;;1.50;;
61756;SDS011;57225;61.460;24.060;2023-09-19T01:37:56;3.35;;;1.50;;
61756;SDS011;57225;61.460;24.060;2023-09-19T01:40:44;3.22;;;1.77;;
61756;SDS011;57225;61.460;24.060;2023-09-19T01:43:42;5.93;;;1.80;;
61756;SDS011;57225;61.460;24.060;2023-09-19T01:46:30;4.60;;;1.83;;
61756;SDS011;57225;61.460;24.060;2023-09-19T01:52:12;4.53;;;1.83;;
61756;SDS011;57225;61.460;24.060;2023-09-19T01:55:05;7.35;;;2.28;;
61756;SDS011;57225;61.460;24.060;2023-09-19T02:00:43;7.28;;;2.25;;
61756;SDS011;57225;61.460;24.060;2023-09-19T02:03:30;4.15;;;2.15;;
61756;SDS011;57225;61.460;24.060;2023-09-19T02:06:17;5.45;;;1.77;;
61756;SDS011;57225;61.460;24.060;2023-09-19T02:09:02;9.45;;;1.88;;
61756;SDS011;57225;61.460;24.060;2023-09-19T02:11:47;9.52;;;2.70;;
61756;SDS011;57225;61.460;24.060;2023-09-19T02:14:33;5.03;;;2.15;;
61756;SDS011;57225;61.460;24.060;2023-09-19T02:17:18;9.95;;;2.00;;
61756;SDS011;57225;61.460;24.060;2023-09-19T02:20:03;7.13;;;2.28;;
61756;SDS011;57225;61.460;24.060;2023-09-19T02:22:54;2.90;;;2.00;;
61756;SDS011;57225;61.460;24.060;2023-09-19T02:25:38;6.90;;;2.05;;
61756;SDS011;57225;61.460;24.060;2023-09-19T02:28:24;6.40;;;2.20;;
61756;SDS011;57225;61.460;24.060;2023-09-19T02:31:08;3.50;;;2.15;;
61756;SDS011;57225;61.460;24.060;2023-09-19T02:33:53;5.38;;;2.17;;
61756;SDS011;57225;61.460;24.060;2023-09-19T02:36:37;4.03;;;2.03;;
61756;SDS011;57225;61.460;24.060;2023-09-19T02:39:21;3.28;;;1.98;;
61756;SDS011;57225;61.460;24.060;2023-09-19T02:42:07;6.72;;;2.42;;
61756;SDS011;57225;61.460;24.060;2023-09-19T02:44:51;3.90;;;2.40;;
61756;SDS011;57225;61.460;24.060;2023-09-19T02:47:36;6.53;;;2.13;;
61756;SDS011;57225;61.460;24.060;2023-09-19T02:50:20;5.22;;;2.53;;
61756;SDS011;57225;61.460;24.060;2023-09-19T02:53:05;4.60;;;2.75;;
61756;SDS011;57225;61.460;24.060;2023-09-19T02:55:50;5.78;;;2.72;;
61756;SDS011;57225;61.460;24.060;2023-09-19T02:58:37;6.00;;;2.75;;
61756;SDS011;57225;61.460;24.060;2023-09-19T03:01:22;8.32;;;2.70;;
61756;SDS011;57225;61.460;24.060;2023-09-19T03:04:06;6.90;;;2.47;;
61756;SDS011;57225;61.460;24.060;2023-09-19T03:06:51;9.93;;;2.90;;
61756;SDS011;57225;61.460;24.060;2023-09-19T03:09:36;6.85;;;3.28;;
61756;SDS011;57225;61.460;24.060;2023-09-19T03:12:21;13.73;;;3.40;;
61756;SDS011;57225;61.460;24.060;2023-09-19T03:15:05;5.03;;;2.85;;
61756;SDS011;57225;61.460;24.060;2023-09-19T03:17:52;6.68;;;2.88;;
61756;SDS011;57225;61.460;24.060;2023-09-19T03:20:37;4.95;;;2.97;;
61756;SDS011;57225;61.460;24.060;2023-09-19T03:23:22;7.30;;;3.05;;
61756;SDS011;57225;61.460;24.060;2023-09-19T03:26:07;4.35;;;2.88;;
61756;SDS011;57225;61.460;24.060;2023-09-19T03:28:52;8.63;;;3.60;;
61756;SDS011;57225;61.460;24.060;2023-09-19T03:31:37;5.35;;;3.03;;
61756;SDS011;57225;61.460;24.060;2023-09-19T03:34:21;6.97;;;3.40;;
61756;SDS011;57225;61.460;24.060;2023-09-19T03:37:06;8.25;;;3.13;;
61756;SDS011;57225;61.460;24.060;2023-09-19T03:39:50;10.02;;;3.35;;
61756;SDS011;57225;61.460;24.060;2023-09-19T03:42:37;11.43;;;3.40;;
61756;SDS011;57225;61.460;24.060;2023-09-19T03:45:25;9.15;;;3.45;;
61756;SDS011;57225;61.460;24.060;2023-09-19T03:48:10;8.40;;;3.88;;
61756;SDS011;57225;61.460;24.060;2023-09-19T03:50:54;8.43;;;3.97;;
61756;SDS011;57225;61.460;24.060;2023-09-19T03:53:40;9.23;;;3.78;;
61756;SDS011;57225;61.460;24.060;2023-09-19T03:56:25;10.75;;;3.80;;
61756;SDS011;57225;61.460;24.060;2023-09-19T03:59:10;12.05;;;4.90;;
61756;SDS011;57225;61.460;24.060;2023-09-19T04:01:55;8.80;;;4.90;;
61756;SDS011;57225;61.460;24.060;2023-09-19T04:04:41;10.05;;;4.43;;
61756;SDS011;57225;61.460;24.060;2023-09-19T04:07:25;8.55;;;4.55;;
61756;SDS011;57225;61.460;24.060;2023-09-19T04:10:12;11.57;;;5.72;;
61756;SDS011;57225;61.460;24.060;2023-09-19T04:12:57;11.77;;;4.38;;
61756;SDS011;57225;61.460;24.060;2023-09-19T04:15:42;11.35;;;4.55;;
61756;SDS011;57225;61.460;24.060;2023-09-19T04:18:26;11.68;;;4.72;;
61756;SDS011;57225;61.460;24.060;2023-09-19T04:21:11;8.75;;;4.50;;
61756;SDS011;57225;61.460;24.060;2023-09-19T04:23:55;11.95;;;4.40;;
61756;SDS011;57225;61.460;24.060;2023-09-19T04:26:40;12.65;;;4.20;;
61756;SDS011;57225;61.460;24.060;2023-09-19T04:29:39;6.82;;;4.15;;
61756;SDS011;57225;61.460;24.060;2023-09-19T04:32:28;11.35;;;4.07;;
61756;SDS011;57225;61.460;24.060;2023-09-19T04:35:13;10.93;;;3.85;;
61756;SDS011;57225;61.460;24.060;2023-09-19T04:37:58;11.45;;;4.65;;
61756;SDS011;57225;61.460;24.060;2023-09-19T04:40:43;10.07;;;3.83;;
61756;SDS011;57225;61.460;24.060;2023-09-19T04:43:27;10.15;;;3.72;;
61756;SDS011;57225;61.460;24.060;2023-09-19T04:46:14;11.23;;;4.20;;
61756;SDS011;57225;61.460;24.060;2023-09-19T04:48:58;8.05;;;3.42;;
61756;SDS011;57225;61.460;24.060;2023-09-19T04:51:43;9.23;;;3.40;;
61756;SDS011;57225;61.460;24.060;2023-09-19T04:54:27;10.93;;;3.75;;
61756;SDS011;57225;61.460;24.060;2023-09-19T04:57:12;9.50;;;3.40;;
61756;SDS011;57225;61.460;24.060;2023-09-19T04:59:56;8.65;;;3.63;;
61756;SDS011;57225;61.460;24.060;2023-09-19T05:02:41;12.30;;;3.85;;
61756;SDS011;57225;61.460;24.060;2023-09-19T05:05:26;8.60;;;3.63;;
61756;SDS011;57225;61.460;24.060;2023-09-19T05:08:10;14.00;;;3.67;;
61756;SDS011;57225;61.460;24.060;2023-09-19T05:10:55;10.90;;;3.60;;
61756;SDS011;57225;61.460;24.060;2023-09-19T05:13:39;7.22;;;3.33;;
61756;SDS011;57225;61.460;24.060;2023-09-19T05:16:23;12.40;;;3.85;;
61756;SDS011;57225;61.460;24.060;2023-09-19T05:19:08;7.25;;;3.55;;
61756;SDS011;57225;61.460;24.060;2023-09-19T05:21:55;7.22;;;3.60;;
61756;SDS011;57225;61.460;24.060;2023-09-19T05:24:39;10.02;;;4.00;;
61756;SDS011;57225;61.460;24.060;2023-09-19T05:27:24;7.38;;;3.95;;
61756;SDS011;57225;61.460;24.060;2023-09-19T05:30:09;10.50;;;4.35;;
61756;SDS011;57225;61.460;24.060;2023-09-19T05:32:54;9.48;;;4.18;;
61756;SDS011;57225;61.460;24.060;2023-09-19T05:35:38;11.02;;;3.92;;
61756;SDS011;57225;61.460;24.060;2023-09-19T05:38:25;15.18;;;5.40;;
61756;SDS011;57225;61.460;24.060;2023-09-19T05:41:10;12.13;;;4.65;;
61756;SDS011;57225;61.460;24.060;2023-09-19T05:43:57;5.97;;;4.03;;
61756;SDS011;57225;61.460;24.060;2023-09-19T05:46:43;4.35;;;3.70;;
61756;SDS011;57225;61.460;24.060;2023-09-19T05:49:29;7.85;;;4.40;;
61756;SDS011;57225;61.460;24.060;2023-09-19T05:52:13;13.98;;;5.47;;
61756;SDS011;57225;61.460;24.060;2023-09-19T05:54:58;10.20;;;5.80;;
61756;SDS011;57225;61.460;24.060;2023-09-19T05:57:42;10.50;;;5.47;;
61756;SDS011;57225;61.460;24.060;2023-09-19T06:00:27;13.82;;;6.25;;
61756;SDS011;57225;61.460;24.060;2023-09-19T06:03:13;11.52;;;5.90;;
61756;SDS011;57225;61.460;24.060;2023-09-19T06:05:58;8.00;;;5.22;;
61756;SDS011;57225;61.460;24.060;2023-09-19T06:08:43;14.88;;;7.28;;
61756;SDS011;57225;61.460;24.060;2023-09-19T06:11:28;13.20;;;6.93;;
61756;SDS011;57225;61.460;24.060;2023-09-19T06:14:15;15.95;;;6.88;;
61756;SDS011;57225;61.460;24.060;2023-09-19T06:17:01;15.65;;;7.93;;
61756;SDS011;57225;61.460;24.060;2023-09-19T06:19:46;13.43;;;7.00;;
61756;SDS011;57225;61.460;24.060;2023-09-19T06:22:31;13.70;;;7.60;;
61756;SDS011;57225;61.460;24.060;2023-09-19T06:25:16;20.20;;;7.85;;
61756;SDS011;57225;61.460;24.060;2023-09-19T06:28:03;12.97;;;6.93;;
61756;SDS011;57225;61.460;24.060;2023-09-19T06:30:51;15.75;;;8.10;;
61756;SDS011;57225;61.460;24.060;2023-09-19T06:33:36;13.50;;;8.20;;
61756;SDS011;57225;61.460;24.060;2023-09-19T06:36:24;12.90;;;8.40;;
61756;SDS011;57225;61.460;24.060;2023-09-19T06:39:08;17.15;;;8.65;;
61756;SDS011;57225;61.460;24.060;2023-09-19T06:41:54;18.20;;;8.32;;
61756;SDS011;57225;61.460;24.060;2023-09-19T06:44:39;19.83;;;9.18;;
61756;SDS011;57225;61.460;24.060;2023-09-19T06:47:24;17.92;;;8.95;;
61756;SDS011;57225;61.460;24.060;2023-09-19T06:50:09;15.10;;;8.45;;
61756;SDS011;57225;61.460;24.060;2023-09-19T06:52:57;14.48;;;8.15;;
61756;SDS011;57225;61.460;24.060;2023-09-19T06:55:43;12.65;;;7.65;;
61756;SDS011;57225;61.460;24.060;2023-09-19T06:58:29;14.60;;;7.93;;
61756;SDS011;57225;61.460;24.060;2023-09-19T07:01:15;15.82;;;8.30;;
61756;SDS011;57225;61.460;24.060;2023-09-19T07:04:00;13.30;;;8.07;;
61756;SDS011;57225;61.460;24.060;2023-09-19T07:06:44;17.23;;;9.05;;
61756;SDS011;57225;61.460;24.060;2023-09-19T07:09:33;17.30;;;8.57;;
61756;SDS011;57225;61.460;24.060;2023-09-19T07:12:17;16.42;;;8.15;;
61756;SDS011;57225;61.460;24.060;2023-09-19T07:15:03;13.07;;;8.32;;
61756;SDS011;57225;61.460;24.060;2023-09-19T07:17:49;17.55;;;9.18;;
61756;SDS011;57225;61.460;24.060;2023-09-19T07:20:34;15.82;;;7.90;;
61756;SDS011;57225;61.460;24.060;2023-09-19T07:23:19;17.15;;;8.15;;
61756;SDS011;57225;61.460;24.060;2023-09-19T07:26:05;19.55;;;8.65;;
61756;SDS011;57225;61.460;24.060;2023-09-19T07:28:50;16.83;;;8.27;;
61756;SDS011;57225;61.460;24.060;2023-09-19T07:31:34;17.83;;;7.55;;
61756;SDS011;57225;61.460;24.060;2023-09-19T07:34:19;15.02;;;7.80;;
61756;SDS011;57225;61.460;24.060;2023-09-19T07:37:06;13.52;;;7.28;;
61756;SDS011;57225;61.460;24.060;2023-09-19T07:39:51;14.73;;;8.02;;
61756;SDS011;57225;61.460;24.060;2023-09-19T07:42:36;19.63;;;7.82;;
61756;SDS011;57225;61.460;24.060;2023-09-19T07:45:24;10.90;;;7.20;;
61756;SDS011;57225;61.460;24.060;2023-09-19T07:48:08;16.13;;;7.80;;
61756;SDS011;57225;61.460;24.060;2023-09-19T07:51:01;15.30;;;7.85;;
61756;SDS011;57225;61.460;24.060;2023-09-19T07:53:46;16.20;;;7.43;;
61756;SDS011;57225;61.460;24.060;2023-09-19T07:56:31;15.32;;;8.07;;
61756;SDS011;57225;61.460;24.060;2023-09-19T07:59:16;14.35;;;8.20;;
61756;SDS011;57225;61.460;24.060;2023-09-19T08:02:01;12.50;;;7.75;;
61756;SDS011;57225;61.460;24.060;2023-09-19T08:04:48;18.73;;;8.27;;
61756;SDS011;57225;61.460;24.060;2023-09-19T08:07:32;15.32;;;7.95;;
61756;SDS011;57225;61.460;24.060;2023-09-19T08:10:17;19.90;;;7.70;;
61756;SDS011;57225;61.460;24.060;2023-09-19T08:13:03;18.67;;;8.27;;
61756;SDS011;57225;61.460;24.060;2023-09-19T08:15:48;13.48;;;8.60;;
61756;SDS011;57225;61.460;24.060;2023-09-19T08:18:32;16.33;;;8.50;;
61756;SDS011;57225;61.460;24.060;2023-09-19T08:21:17;15.55;;;8.35;;
61756;SDS011;57225;61.460;24.060;2023-09-19T08:24:01;14.88;;;8.05;;
61756;SDS011;57225;61.460;24.060;2023-09-19T08:26:49;21.20;;;9.40;;
61756;SDS011;57225;61.460;24.060;2023-09-19T08:29:44;17.77;;;9.00;;
61756;SDS011;57225;61.460;24.060;2023-09-19T08:32:28;15.23;;;9.85;;
61756;SDS011;57225;61.460;24.060;2023-09-19T08:35:13;24.20;;;9.40;;
61756;SDS011;57225;61.460;24.060;2023-09-19T08:37:58;17.17;;;9.35;;
61756;SDS011;57225;61.460;24.060;2023-09-19T08:40:44;20.23;;;10.02;;
61756;SDS011;57225;61.460;24.060;2023-09-19T08:43:29;18.77;;;9.50;;
61756;SDS011;57225;61.460;24.060;2023-09-19T08:46:16;17.80;;;8.90;;
61756;SDS011;57225;61.460;24.060;2023-09-19T08:49:04;15.52;;;9.68;;
61756;SDS011;57225;61.460;24.060;2023-09-19T08:51:53;17.02;;;8.82;;
61756;SDS011;57225;61.460;24.060;2023-09-19T08:54:49;18.58;;;9.75;;
61756;SDS011;57225;61.460;24.060;2023-09-19T08:57:39;17.40;;;9.32;;
61756;SDS011;57225;61.460;24.060;2023-09-19T09:00:27;23.65;;;9.48;;
61756;SDS011;57225;61.460;24.060;2023-09-19T09:03:12;13.90;;;8.40;;
61756;SDS011;57225;61.460;24.060;2023-09-19T09:05:58;16.83;;;8.93;;
61756;SDS011;57225;61.460;24.060;2023-09-19T09:08:44;20.13;;;8.75;;
61756;SDS011;57225;61.460;24.060;2023-09-19T09:11:29;19.52;;;8.52;;
61756;SDS011;57225;61.460;24.060;2023-09-19T09:14:16;15.02;;;8.15;;
61756;SDS011;57225;61.460;24.060;2023-09-19T09:17:01;12.60;;;7.68;;
61756;SDS011;57225;61.460;24.060;2023-09-19T09:19:47;14.93;;;8.50;;
61756;SDS011;57225;61.460;24.060;2023-09-19T09:22:31;16.17;;;8.43;;
61756;SDS011;57225;61.460;24.060;2023-09-19T09:25:16;13.07;;;7.80;;
61756;SDS011;57225;61.460;24.060;2023-09-19T09:28:02;19.88;;;8.00;;
61756;SDS011;57225;61.460;24.060;2023-09-19T09:30:46;14.55;;;7.60;;
61756;SDS011;57225;61.460;24.060;2023-09-19T09:33:31;17.08;;;7.80;;
61756;SDS011;57225;61.460;24.060;2023-09-19T09:36:15;15.13;;;7.15;;
61756;SDS011;57225;61.460;24.060;2023-09-19T09:39:04;12.43;;;7.17;;
61756;SDS011;57225;61.460;24.060;2023-09-19T09:42:08;12.73;;;6.93;;
61756;SDS011;57225;61.460;24.060;2023-09-19T09:45:12;11.85;;;7.53;;
61756;SDS011;57225;61.460;24.060;2023-09-19T09:47:56;13.77;;;7.50;;
61756;SDS011;57225;61.460;24.060;2023-09-19T09:50:47;14.13;;;8.02;;
61756;SDS011;57225;61.460;24.060;2023-09-19T09:53:32;14.02;;;7.63;;
61756;SDS011;57225;61.460;24.060;2023-09-19T09:56:16;16.83;;;9.05;;
61756;SDS011;57225;61.460;24.060;2023-09-19T09:59:02;14.68;;;8.20;;
61756;SDS011;57225;61.460;24.060;2023-09-19T10:01:47;14.55;;;8.95;;
61756;SDS011;57225;61.460;24.060;2023-09-19T10:04:33;12.93;;;7.70;;
61756;SDS011;57225;61.460;24.060;2023-09-19T10:07:29;14.25;;;8.55;;
61756;SDS011;57225;61.460;24.060;2023-09-19T10:10:34;21.20;;;8.75;;
61756;SDS011;57225;61.460;24.060;2023-09-19T10:13:37;13.95;;;9.32;;
61756;SDS011;57225;61.460;24.060;2023-09-19T10:16:25;17.20;;;9.48;;
61756;SDS011;57225;61.460;24.060;2023-09-19T10:22:02;14.32;;;8.95;;
61756;SDS011;57225;61.460;24.060;2023-09-19T10:24:49;20.40;;;10.35;;
61756;SDS011;57225;61.460;24.060;2023-09-19T10:27:36;19.42;;;10.32;;
61756;SDS011;57225;61.460;24.060;2023-09-19T10:30:22;16.63;;;9.95;;
61756;SDS011;57225;61.460;24.060;2023-09-19T10:33:08;25.98;;;10.95;;
61756;SDS011;57225;61.460;24.060;2023-09-19T10:35:53;20.27;;;9.80;;
61756;SDS011;57225;61.460;24.060;2023-09-19T10:38:41;16.50;;;10.38;;
61756;SDS011;57225;61.460;24.060;2023-09-19T10:41:30;14.82;;;9.82;;
61756;SDS011;57225;61.460;24.060;2023-09-19T10:44:24;15.63;;;9.40;;
61756;SDS011;57225;61.460;24.060;2023-09-19T10:47:09;14.40;;;9.88;;
61756;SDS011;57225;61.460;24.060;2023-09-19T10:49:54;14.75;;;9.80;;
61756;SDS011;57225;61.460;24.060;2023-09-19T10:52:40;16.40;;;10.18;;
61756;SDS011;57225;61.460;24.060;2023-09-19T10:55:26;17.08;;;9.55;;
61756;SDS011;57225;61.460;24.060;2023-09-19T10:58:12;14.32;;;9.57;;
61756;SDS011;57225;61.460;24.060;2023-09-19T11:01:08;14.20;;;8.85;;
61756;SDS011;57225;61.460;24.060;2023-09-19T11:04:20;15.70;;;10.07;;
61756;SDS011;57225;61.460;24.060;2023-09-19T11:07:10;19.52;;;9.82;;
61756;SDS011;57225;61.460;24.060;2023-09-19T11:09:58;14.60;;;9.60;;
61756;SDS011;57225;61.460;24.060;2023-09-19T11:27:09;14.15;;;9.02;;
61756;SDS011;57225;61.460;24.060;2023-09-19T11:33:27;13.77;;;9.60;;
61756;SDS011;57225;61.460;24.060;2023-09-19T11:36:26;13.88;;;9.98;;
61756;SDS011;57225;61.460;24.060;2023-09-19T11:39:26;17.45;;;9.55;;
61756;SDS011;57225;61.460;24.060;2023-09-19T11:48:29;12.35;;;9.02;;
61756;SDS011;57225;61.460;24.060;2023-09-19T11:51:20;14.70;;;8.77;;
61756;SDS011;57225;61.460;24.060;2023-09-19T11:54:12;23.27;;;10.32;;
61756;SDS011;57225;61.460;24.060;2023-09-19T11:57:01;15.15;;;10.20;;
61756;SDS011;57225;61.460;24.060;2023-09-19T11:59:46;18.65;;;10.98;;
61756;SDS011;57225;61.460;24.060;2023-09-19T12:02:38;17.98;;;12.25;;
61756;SDS011;57225;61.460;24.060;2023-09-19T12:05:29;19.40;;;12.23;;
61756;SDS011;57225;61.460;24.060;2023-09-19T12:08:17;19.13;;;11.65;;
61756;SDS011;57225;61.460;24.060;2023-09-19T12:11:04;20.73;;;13.32;;
61756;SDS011;57225;61.460;24.060;2023-09-19T12:13:51;22.60;;;12.88;;
61756;SDS011;57225;61.460;24.060;2023-09-19T12:16:36;18.70;;;12.43;;
61756;SDS011;57225;61.460;24.060;2023-09-19T12:19:22;22.58;;;13.00;;
61756;SDS011;57225;61.460;24.060;2023-09-19T12:22:07;21.58;;;13.15;;
61756;SDS011;57225;61.460;24.060;2023-09-19T12:24:53;21.95;;;12.90;;
61756;SDS011;57225;61.460;24.060;2023-09-19T12:27:45;23.08;;;13.77;;
61756;SDS011;57225;61.460;24.060;2023-09-19T12:30:36;21.02;;;13.10;;
61756;SDS011;57225;61.460;24.060;2023-09-19T12:33:20;21.15;;;12.68;;
61756;SDS011;57225;61.460;24.060;2023-09-19T12:36:43;18.80;;;13.25;;
61756;SDS011;57225;61.460;24.060;2023-09-19T12:39:26;19.55;;;12.57;;
61756;SDS011;57225;61.460;24.060;2023-09-19T12:42:10;21.08;;;12.77;;
61756;SDS011;57225;61.460;24.060;2023-09-19T12:44:58;23.00;;;12.90;;
61756;SDS011;57225;61.460;24.060;2023-09-19T12:51:17;20.77;;;13.32;;
61756;SDS011;57225;61.460;24.060;2023-09-19T12:54:07;21.70;;;13.63;;
61756;SDS011;57225;61.460;24.060;2023-09-19T12:56:54;19.48;;;13.73;;
61756;SDS011;57225;61.460;24.060;2023-09-19T12:59:38;22.33;;;14.20;;
61756;SDS011;57225;61.460;24.060;2023-09-19T13:02:23;24.25;;;14.23;;
61756;SDS011;57225;61.460;24.060;2023-09-19T13:05:09;25.10;;;15.00;;
61756;SDS011;57225;61.460;24.060;2023-09-19T13:07:54;23.35;;;15.63;;
61756;SDS011;57225;61.460;24.060;2023-09-19T13:13:46;30.23;;;16.38;;
61756;SDS011;57225;61.460;24.060;2023-09-19T13:16:56;25.70;;;16.42;;
61756;SDS011;57225;61.460;24.060;2023-09-19T13:19:48;29.35;;;16.70;;
61756;SDS011;57225;61.460;24.060;2023-09-19T13:22:40;26.45;;;16.38;;
61756;SDS011;57225;61.460;24.060;2023-09-19T13:25:38;27.77;;;17.02;;
61756;SDS011;57225;61.460;24.060;2023-09-19T13:28:24;24.25;;;15.70;;
61756;SDS011;57225;61.460;24.060;2023-09-19T13:31:10;28.02;;;17.33;;
61756;SDS011;57225;61.460;24.060;2023-09-19T13:33:57;29.67;;;16.35;;
61756;SDS011;57225;61.460;24.060;2023-09-19T13:36:42;23.52;;;16.27;;
61756;SDS011;57225;61.460;24.060;2023-09-19T13:39:27;23.17;;;15.95;;
61756;SDS011;57225;61.460;24.060;2023-09-19T13:42:13;24.98;;;16.42;;
61756;SDS011;57225;61.460;24.060;2023-09-19T13:44:57;27.80;;;15.63;;
61756;SDS011;57225;61.460;24.060;2023-09-19T13:47:42;24.38;;;16.35;;
61756;SDS011;57225;61.460;24.060;2023-09-19T13:50:27;28.67;;;16.92;;
61756;SDS011;57225;61.460;24.060;2023-09-19T13:53:12;23.30;;;15.57;;
61756;SDS011;57225;61.460;24.060;2023-09-19T13:55:57;25.75;;;16.40;;
61756;SDS011;57225;61.460;24.060;2023-09-19T13:58:41;29.52;;;16.70;;
61756;SDS011;57225;61.460;24.060;2023-09-19T14:01:26;25.25;;;16.98;;
61756;SDS011;57225;61.460;24.060;2023-09-19T14:04:11;26.13;;;16.15;;
61756;SDS011;57225;61.460;24.060;2023-09-19T14:06:55;23.67;;;16.13;;
61756;SDS011;57225;61.460;24.060;2023-09-19T14:09:41;29.45;;;17.13;;
61756;SDS011;57225;61.460;24.060;2023-09-19T14:12:25;30.48;;;17.50;;
61756;SDS011;57225;61.460;24.060;2023-09-19T14:15:10;25.05;;;15.90;;
61756;SDS011;57225;61.460;24.060;2023-09-19T14:17:54;27.48;;;16.48;;
61756;SDS011;57225;61.460;24.060;2023-09-19T14:20:43;24.90;;;15.50;;
61756;SDS011;57225;61.460;24.060;2023-09-19T14:23:27;30.55;;;16.23;;
61756;SDS011;57225;61.460;24.060;2023-09-19T14:26:11;22.90;;;14.48;;
61756;SDS011;57225;61.460;24.060;2023-09-19T14:28:56;24.88;;;15.02;;
61756;SDS011;57225;61.460;24.060;2023-09-19T14:31:41;24.38;;;15.48;;
61756;SDS011;57225;61.460;24.060;2023-09-19T14:34:25;21.40;;;13.82;;
61756;SDS011;57225;61.460;24.060;2023-09-19T14:37:10;22.30;;;14.80;;
61756;SDS011;57225;61.460;24.060;2023-09-19T14:39:57;28.48;;;14.40;;
61756;SDS011;57225;61.460;24.060;2023-09-19T14:42:43;26.65;;;14.73;;
61756;SDS011;57225;61.460;24.060;2023-09-19T14:45:28;19.42;;;13.48;;
61756;SDS011;57225;61.460;24.060;2023-09-19T14:48:13;23.88;;;12.93;;
61756;SDS011;57225;61.460;24.060;2023-09-19T14:51:01;21.27;;;13.63;;
61756;SDS011;57225;61.460;24.060;2023-09-19T14:53:50;19.83;;;12.57;;
61756;SDS011;57225;61.460;24.060;2023-09-19T14:56:34;17.52;;;11.75;;
61756;SDS011;57225;61.460;24.060;2023-09-19T14:59:19;19.75;;;12.60;;
61756;SDS011;57225;61.460;24.060;2023-09-19T15:02:04;16.60;;;11.35;;
61756;SDS011;57225;61.460;24.060;2023-09-19T15:04:48;15.48;;;10.57;;
61756;SDS011;57225;61.460;24.060;2023-09-19T15:07:37;17.95;;;10.90;;
61756;SDS011;57225;61.460;24.060;2023-09-19T15:10:23;17.70;;;11.52;;
61756;SDS011;57225;61.460;24.060;2023-09-19T15:13:08;17.17;;;10.98;;
61756;SDS011;57225;61.460;24.060;2023-09-19T15:15:52;13.45;;;10.30;;
61756;SDS011;57225;61.460;24.060;2023-09-19T15:18:37;15.82;;;9.95;;
61756;SDS011;57225;61.460;24.060;2023-09-19T15:21:23;15.65;;;9.80;;
61756;SDS011;57225;61.460;24.060;2023-09-19T15:24:08;13.90;;;9.50;;
61756;SDS011;57225;61.460;24.060;2023-09-19T15:26:53;14.07;;;9.02;;
61756;SDS011;57225;61.460;24.060;2023-09-19T15:29:39;14.25;;;9.38;;
61756;SDS011;57225;61.460;24.060;2023-09-19T15:32:24;16.98;;;9.65;;
61756;SDS011;57225;61.460;24.060;2023-09-19T15:35:08;15.88;;;10.00;;
61756;SDS011;57225;61.460;24.060;2023-09-19T15:37:56;18.50;;;9.77;;
61756;SDS011;57225;61.460;24.060;2023-09-19T15:40:46;14.60;;;9.48;;
61756;SDS011;57225;61.460;24.060;2023-09-19T15:43:31;13.30;;;9.23;;
61756;SDS011;57225;61.460;24.060;2023-09-19T15:46:16;15.80;;;10.13;;
61756;SDS011;57225;61.460;24.060;2023-09-19T15:49:00;17.92;;;10.43;;
61756;SDS011;57225;61.460;24.060;2023-09-19T15:51:45;15.25;;;10.07;;
61756;SDS011;57225;61.460;24.060;2023-09-19T15:54:29;17.55;;;10.27;;
61756;SDS011;57225;61.460;24.060;2023-09-19T15:57:16;15.63;;;9.82;;
61756;SDS011;57225;61.460;24.060;2023-09-19T16:00:01;14.75;;;10.00;;
61756;SDS011;57225;61.460;24.060;2023-09-19T16:02:46;14.35;;;9.88;;
61756;SDS011;57225;61.460;24.060;2023-09-19T16:05:36;13.18;;;9.32;;
61756;SDS011;57225;61.460;24.060;2023-09-19T16:08:23;15.38;;;9.50;;
61756;SDS011;57225;61.460;24.060;2023-09-19T16:11:08;14.75;;;9.57;;
61756;SDS011;57225;61.460;24.060;2023-09-19T16:13:53;17.27;;;9.30;;
61756;SDS011;57225;61.460;24.060;2023-09-19T16:16:38;13.55;;;8.68;;
61756;SDS011;57225;61.460;24.060;2023-09-19T16:19:22;12.13;;;8.48;;
61756;SDS011;57225;61.460;24.060;2023-09-19T16:22:07;12.80;;;9.10;;
61756;SDS011;57225;61.460;24.060;2023-09-19T16:24:52;13.02;;;8.80;;
61756;SDS011;57225;61.460;24.060;2023-09-19T16:27:37;13.77;;;8.43;;
61756;SDS011;57225;61.460;24.060;2023-09-19T16:30:21;15.30;;;8.45;;
61756;SDS011;57225;61.460;24.060;2023-09-19T16:33:06;13.13;;;8.25;;
61756;SDS011;57225;61.460;24.060;2023-09-19T16:35:50;11.65;;;8.00;;
61756;SDS011;57225;61.460;24.060;2023-09-19T16:38:35;12.90;;;8.93;;
61756;SDS011;57225;61.460;24.060;2023-09-19T16:41:21;14.32;;;8.43;;
61756;SDS011;57225;61.460;24.060;2023-09-19T16:44:21;11.13;;;7.75;;
61756;SDS011;57225;61.460;24.060;2023-09-19T16:47:06;9.73;;;6.45;;
61756;SDS011;57225;61.460;24.060;2023-09-19T16:49:50;13.00;;;7.00;;
61756;SDS011;57225;61.460;24.060;2023-09-19T16:52:36;19.52;;;7.07;;
61756;SDS011;57225;61.460;24.060;2023-09-19T16:55:20;10.77;;;6.75;;
61756;SDS011;57225;61.460;24.060;2023-09-19T16:58:05;10.93;;;6.88;;
61756;SDS011;57225;61.460;24.060;2023-09-19T17:00:50;9.88;;;6.32;;
61756;SDS011;57225;61.460;24.060;2023-09-19T17:03:35;10.00;;;6.53;;
61756;SDS011;57225;61.460;24.060;2023-09-19T17:06:21;10.55;;;6.03;;